Radiance Of The Seas — C6SE7 — position and weather

sailwx.info

Track history (hours):
 
Tides and Currents Weather Stations Pressure Air Temp Water Temp Dewpoint Dewpoint Depression Visibility Wind Speed Wind Dir Waves Ship Positions

Radiance Of The Seas

Operator: Royal Caribbean Cruises Ltd

Last reported at 2018-Jan-19 03:29 UTC. Time now 2018-Jan-19 03:36 UTC.
Position S 37°39' E 176°11'.

Type: Passenger vessel. MMSI: 311319000.

Date/timePositionNaut miles runAvg speedWind from/ knotsBaromVisibWave heightAir tempDewpointWater temp
2018-Jan-19 03:29S 37°39' E 176°11'0 0.0
2018-Jan-19 02:59S 37°39' E 176°11'0 0.0
2018-Jan-19 02:26S 37°39' E 176°11'0 0.0
2018-Jan-19 01:56S 37°39' E 176°11'0 0.0
2018-Jan-19 01:26S 37°39' E 176°11'0 0.0
2018-Jan-19 00:59S 37°39' E 176°11'0 0.0
2018-Jan-19 00:29S 37°39' E 176°11'0 0.0
2018-Jan-18 23:59S 37°39' E 176°11'0 0.0
2018-Jan-18 23:29S 37°39' E 176°11'0 0.0
2018-Jan-18 22:59S 37°39' E 176°11'0 0.0
2018-Jan-18 22:29S 37°39' E 176°11'0 0.0
2018-Jan-18 21:59S 37°39' E 176°11'0 0.0
2018-Jan-18 21:29S 37°39' E 176°11'0 0.0
2018-Jan-18 21:00S 37°39' E 176°11'2 4.8
2018-Jan-18 20:30S 37°36' E 176°11'4 7.8
2018-Jan-18 20:00S 37°32' E 176°12'2156.0
2018-Jan-18 20:00S 37°30' E 176°12'2 3.0 010 / 81017.0 5.4 21.019.522.0
2018-Jan-18 19:29S 37°29' E 176°12'92 7.6
2018-Jan-18 07:23S 35°59' E 175°46'14 9.9
2018-Jan-18 06:00S 35°48' E 175°36'3 3.9 360 / 221015.0 5.4 21.018.021.0
2018-Jan-18 05:14S 35°47' E 175°33'20 8.9
2018-Jan-18 03:00S 35°36' E 175°12'53 8.9 010 / 261015.0 5.4 20.0 20.0
2018-Jan-17 21:00S 35°00' E 174°24'173 4.6 010 / 281014.0 2.2 20.016.923.0
2018-Jan-16 07:00S 37°30' E 176°12'   040 / 351020.010.8 24.022.626.0
2018-Jan-09 06:15S 18°23' E 178°18'3 7.6
2018-Jan-09 05:54S 18°20' E 178°18'3 7.9
2018-Jan-09 05:30S 18°17' E 178°19'4 8.6
2018-Jan-09 05:01S 18°14' E 178°22'4 7.9
2018-Jan-09 04:31S 18°11' E 178°23'3 6.4
2018-Jan-09 04:00S 18°08' E 178°25'  
Track history (hours):
 
Tides and Currents Weather Stations Pressure Air Temp Water Temp Dewpoint Dewpoint Depression Visibility Wind Speed Wind Dir Waves Ship Positions

Radiance Of The Seas

Operator: Royal Caribbean Cruises Ltd

Last reported at 2018-Jan-19 03:29 UTC. Time now 2018-Jan-19 03:36 UTC.
Position S 37°39' E 176°11'.

Type: Passenger vessel. MMSI: 311319000.

Date/timePositionNaut miles runAvg speedWind from/ knotsBaromVisibWave heightAir tempDewpointWater temp
2018-Jan-19 03:29S 37°39' E 176°11'0 0.0
2018-Jan-19 02:59S 37°39' E 176°11'0 0.0
2018-Jan-19 02:26S 37°39' E 176°11'0 0.0
2018-Jan-19 01:56S 37°39' E 176°11'0 0.0
2018-Jan-19 01:26S 37°39' E 176°11'0 0.0
2018-Jan-19 00:59S 37°39' E 176°11'0 0.0
2018-Jan-19 00:29S 37°39' E 176°11'0 0.0
2018-Jan-18 23:59S 37°39' E 176°11'0 0.0
2018-Jan-18 23:29S 37°39' E 176°11'0 0.0
2018-Jan-18 22:59S 37°39' E 176°11'0 0.0
2018-Jan-18 22:29S 37°39' E 176°11'0 0.0
2018-Jan-18 21:59S 37°39' E 176°11'0 0.0
2018-Jan-18 21:29S 37°39' E 176°11'0 0.0
2018-Jan-18 21:00S 37°39' E 176°11'2 4.8
2018-Jan-18 20:30S 37°36' E 176°11'4 7.8
2018-Jan-18 20:00S 37°32' E 176°12'2156.0
2018-Jan-18 20:00S 37°30' E 176°12'2 3.0 010 / 81017.0 5.4 21.019.522.0
2018-Jan-18 19:29S 37°29' E 176°12'92 7.6
2018-Jan-18 07:23S 35°59' E 175°46'14 9.9
2018-Jan-18 06:00S 35°48' E 175°36'3 3.9 360 / 221015.0 5.4 21.018.021.0
2018-Jan-18 05:14S 35°47' E 175°33'20 8.9
2018-Jan-18 03:00S 35°36' E 175°12'53 8.9 010 / 261015.0 5.4 20.0 20.0
2018-Jan-17 21:00S 35°00' E 174°24'173 4.6 010 / 281014.0 2.2 20.016.923.0
2018-Jan-16 07:00S 37°30' E 176°12'   040 / 351020.010.8 24.022.626.0
2018-Jan-09 06:15S 18°23' E 178°18'3 7.6
2018-Jan-09 05:54S 18°20' E 178°18'3 7.9
2018-Jan-09 05:30S 18°17' E 178°19'4 8.6
2018-Jan-09 05:01S 18°14' E 178°22'4 7.9
2018-Jan-09 04:31S 18°11' E 178°23'3 6.4
2018-Jan-09 04:00S 18°08' E 178°25'  

Dump ship's entire track history